sensor_id;sensor_type;location;lat;lon;timestamp;P1;durP1;ratioP1;P2;durP2;ratioP2
10162;SDS011;5123;52.556;13.384;2022-11-02T00:00:27;14.80;;;10.80;;
10162;SDS011;5123;52.556;13.384;2022-11-02T00:03:00;11.20;;;10.00;;
10162;SDS011;5123;52.556;13.384;2022-11-02T00:05:35;10.83;;;9.40;;
10162;SDS011;5123;52.556;13.384;2022-11-02T00:08:12;12.30;;;9.67;;
10162;SDS011;5123;52.556;13.384;2022-11-02T00:10:44;9.93;;;8.60;;
10162;SDS011;5123;52.556;13.384;2022-11-02T00:13:19;11.60;;;9.00;;
10162;SDS011;5123;52.556;13.384;2022-11-02T00:15:52;10.40;;;9.13;;
10162;SDS011;5123;52.556;13.384;2022-11-02T00:18:24;13.00;;;9.33;;
10162;SDS011;5123;52.556;13.384;2022-11-02T00:20:58;10.27;;;8.17;;
10162;SDS011;5123;52.556;13.384;2022-11-02T00:23:32;11.53;;;9.30;;
10162;SDS011;5123;52.556;13.384;2022-11-02T00:26:04;12.03;;;8.73;;
10162;SDS011;5123;52.556;13.384;2022-11-02T00:28:37;12.63;;;8.53;;
10162;SDS011;5123;52.556;13.384;2022-11-02T00:31:10;12.97;;;8.60;;
10162;SDS011;5123;52.556;13.384;2022-11-02T00:33:43;10.17;;;7.93;;
10162;SDS011;5123;52.556;13.384;2022-11-02T00:36:17;10.77;;;8.20;;
10162;SDS011;5123;52.556;13.384;2022-11-02T00:38:49;12.87;;;8.90;;
10162;SDS011;5123;52.556;13.384;2022-11-02T00:41:22;9.33;;;7.90;;
10162;SDS011;5123;52.556;13.384;2022-11-02T00:43:55;11.43;;;8.53;;
10162;SDS011;5123;52.556;13.384;2022-11-02T00:46:28;10.00;;;8.03;;
10162;SDS011;5123;52.556;13.384;2022-11-02T00:49:00;11.77;;;8.60;;
10162;SDS011;5123;52.556;13.384;2022-11-02T00:51:34;11.67;;;8.50;;
10162;SDS011;5123;52.556;13.384;2022-11-02T00:54:07;9.57;;;8.00;;
10162;SDS011;5123;52.556;13.384;2022-11-02T00:56:40;11.00;;;8.53;;
10162;SDS011;5123;52.556;13.384;2022-11-02T00:59:13;11.37;;;8.00;;
10162;SDS011;5123;52.556;13.384;2022-11-02T01:01:45;9.70;;;7.53;;
10162;SDS011;5123;52.556;13.384;2022-11-02T01:04:19;11.23;;;8.67;;
10162;SDS011;5123;52.556;13.384;2022-11-02T01:06:54;11.53;;;7.77;;
10162;SDS011;5123;52.556;13.384;2022-11-02T01:09:26;11.70;;;7.90;;
10162;SDS011;5123;52.556;13.384;2022-11-02T01:11:59;9.07;;;7.77;;
10162;SDS011;5123;52.556;13.384;2022-11-02T01:14:32;9.77;;;7.70;;
10162;SDS011;5123;52.556;13.384;2022-11-02T01:17:04;7.83;;;7.03;;
10162;SDS011;5123;52.556;13.384;2022-11-02T01:19:37;9.13;;;7.17;;
10162;SDS011;5123;52.556;13.384;2022-11-02T01:22:11;10.73;;;7.20;;
10162;SDS011;5123;52.556;13.384;2022-11-02T01:24:44;10.43;;;7.20;;
10162;SDS011;5123;52.556;13.384;2022-11-02T01:27:17;9.90;;;6.60;;
10162;SDS011;5123;52.556;13.384;2022-11-02T01:29:49;8.30;;;6.30;;
10162;SDS011;5123;52.556;13.384;2022-11-02T01:32:22;8.83;;;6.30;;
10162;SDS011;5123;52.556;13.384;2022-11-02T01:34:54;8.60;;;6.53;;
10162;SDS011;5123;52.556;13.384;2022-11-02T01:37:31;6.60;;;6.00;;
10162;SDS011;5123;52.556;13.384;2022-11-02T01:40:04;7.23;;;5.90;;
10162;SDS011;5123;52.556;13.384;2022-11-02T01:42:40;9.30;;;6.90;;
10162;SDS011;5123;52.556;13.384;2022-11-02T01:45:12;8.40;;;6.20;;
10162;SDS011;5123;52.556;13.384;2022-11-02T01:47:46;7.47;;;6.70;;
10162;SDS011;5123;52.556;13.384;2022-11-02T01:50:20;8.70;;;6.90;;
10162;SDS011;5123;52.556;13.384;2022-11-02T01:52:55;11.20;;;6.23;;
10162;SDS011;5123;52.556;13.384;2022-11-02T01:55:28;7.13;;;5.90;;
10162;SDS011;5123;52.556;13.384;2022-11-02T01:58:06;12.77;;;6.57;;
10162;SDS011;5123;52.556;13.384;2022-11-02T02:00:40;6.33;;;5.73;;
10162;SDS011;5123;52.556;13.384;2022-11-02T02:03:13;9.90;;;5.90;;
10162;SDS011;5123;52.556;13.384;2022-11-02T02:05:49;7.70;;;5.97;;
10162;SDS011;5123;52.556;13.384;2022-11-02T02:08:26;5.90;;;5.30;;
10162;SDS011;5123;52.556;13.384;2022-11-02T02:10:59;7.33;;;5.60;;
10162;SDS011;5123;52.556;13.384;2022-11-02T02:13:32;7.83;;;4.90;;
10162;SDS011;5123;52.556;13.384;2022-11-02T02:16:06;7.60;;;4.80;;
10162;SDS011;5123;52.556;13.384;2022-11-02T02:18:42;6.70;;;5.30;;
10162;SDS011;5123;52.556;13.384;2022-11-02T02:21:23;6.93;;;4.80;;
10162;SDS011;5123;52.556;13.384;2022-11-02T02:24:03;6.30;;;5.37;;
10162;SDS011;5123;52.556;13.384;2022-11-02T02:26:47;6.33;;;4.83;;
10162;SDS011;5123;52.556;13.384;2022-11-02T02:29:27;9.27;;;4.87;;
10162;SDS011;5123;52.556;13.384;2022-11-02T02:32:03;7.87;;;4.97;;
10162;SDS011;5123;52.556;13.384;2022-11-02T02:34:38;6.37;;;4.77;;
10162;SDS011;5123;52.556;13.384;2022-11-02T02:37:15;5.03;;;4.60;;
10162;SDS011;5123;52.556;13.384;2022-11-02T02:39:50;5.03;;;4.40;;
10162;SDS011;5123;52.556;13.384;2022-11-02T02:42:28;6.23;;;4.53;;
10162;SDS011;5123;52.556;13.384;2022-11-02T02:45:04;5.00;;;3.93;;
10162;SDS011;5123;52.556;13.384;2022-11-02T02:47:41;6.33;;;4.70;;
10162;SDS011;5123;52.556;13.384;2022-11-02T02:50:17;7.47;;;4.63;;
10162;SDS011;5123;52.556;13.384;2022-11-02T02:52:51;6.33;;;3.90;;
10162;SDS011;5123;52.556;13.384;2022-11-02T02:55:25;4.30;;;3.37;;
10162;SDS011;5123;52.556;13.384;2022-11-02T02:57:59;6.57;;;3.47;;
10162;SDS011;5123;52.556;13.384;2022-11-02T03:00:37;6.63;;;4.07;;
10162;SDS011;5123;52.556;13.384;2022-11-02T03:03:14;6.90;;;3.70;;
10162;SDS011;5123;52.556;13.384;2022-11-02T03:05:54;7.23;;;3.83;;
10162;SDS011;5123;52.556;13.384;2022-11-02T03:08:29;6.10;;;3.77;;
10162;SDS011;5123;52.556;13.384;2022-11-02T03:11:04;3.93;;;3.30;;
10162;SDS011;5123;52.556;13.384;2022-11-02T03:13:46;4.90;;;3.23;;
10162;SDS011;5123;52.556;13.384;2022-11-02T03:16:30;5.80;;;3.30;;
10162;SDS011;5123;52.556;13.384;2022-11-02T03:19:07;5.40;;;3.07;;
10162;SDS011;5123;52.556;13.384;2022-11-02T03:21:43;6.57;;;3.47;;
10162;SDS011;5123;52.556;13.384;2022-11-02T03:24:17;4.17;;;2.67;;
10162;SDS011;5123;52.556;13.384;2022-11-02T03:26:53;3.80;;;2.90;;
10162;SDS011;5123;52.556;13.384;2022-11-02T03:29:31;4.63;;;2.73;;
10162;SDS011;5123;52.556;13.384;2022-11-02T03:32:08;5.00;;;2.93;;
10162;SDS011;5123;52.556;13.384;2022-11-02T03:34:42;3.70;;;3.00;;
10162;SDS011;5123;52.556;13.384;2022-11-02T03:37:16;5.50;;;3.27;;
10162;SDS011;5123;52.556;13.384;2022-11-02T03:39:52;6.43;;;3.13;;
10162;SDS011;5123;52.556;13.384;2022-11-02T03:42:26;5.43;;;2.87;;
10162;SDS011;5123;52.556;13.384;2022-11-02T03:45:00;5.70;;;3.00;;
10162;SDS011;5123;52.556;13.384;2022-11-02T03:47:35;6.50;;;2.97;;
10162;SDS011;5123;52.556;13.384;2022-11-02T03:50:09;5.57;;;2.80;;
10162;SDS011;5123;52.556;13.384;2022-11-02T03:52:43;4.03;;;3.07;;
10162;SDS011;5123;52.556;13.384;2022-11-02T03:55:21;5.40;;;2.73;;
10162;SDS011;5123;52.556;13.384;2022-11-02T03:57:55;4.83;;;3.00;;
10162;SDS011;5123;52.556;13.384;2022-11-02T04:00:29;4.30;;;2.90;;
10162;SDS011;5123;52.556;13.384;2022-11-02T04:03:05;9.80;;;3.10;;
10162;SDS011;5123;52.556;13.384;2022-11-02T04:05:42;7.03;;;3.20;;
10162;SDS011;5123;52.556;13.384;2022-11-02T04:08:21;5.17;;;2.70;;
10162;SDS011;5123;52.556;13.384;2022-11-02T04:10:54;3.17;;;2.63;;
10162;SDS011;5123;52.556;13.384;2022-11-02T04:13:44;5.93;;;2.90;;
10162;SDS011;5123;52.556;13.384;2022-11-02T04:16:35;5.80;;;3.00;;
10162;SDS011;5123;52.556;13.384;2022-11-02T04:19:09;5.30;;;3.13;;
10162;SDS011;5123;52.556;13.384;2022-11-02T04:21:59;8.30;;;3.53;;
10162;SDS011;5123;52.556;13.384;2022-11-02T04:24:49;5.27;;;3.20;;
10162;SDS011;5123;52.556;13.384;2022-11-02T04:27:40;8.40;;;3.10;;
10162;SDS011;5123;52.556;13.384;2022-11-02T04:30:13;10.20;;;3.40;;
10162;SDS011;5123;52.556;13.384;2022-11-02T04:32:49;7.37;;;3.47;;
10162;SDS011;5123;52.556;13.384;2022-11-02T04:35:41;5.77;;;2.87;;
10162;SDS011;5123;52.556;13.384;2022-11-02T04:38:13;7.27;;;3.20;;
10162;SDS011;5123;52.556;13.384;2022-11-02T04:41:03;7.87;;;3.33;;
10162;SDS011;5123;52.556;13.384;2022-11-02T04:43:53;6.43;;;3.37;;
10162;SDS011;5123;52.556;13.384;2022-11-02T04:46:27;4.53;;;2.77;;
10162;SDS011;5123;52.556;13.384;2022-11-02T04:49:00;6.30;;;2.90;;
10162;SDS011;5123;52.556;13.384;2022-11-02T04:51:34;9.00;;;3.20;;
10162;SDS011;5123;52.556;13.384;2022-11-02T04:54:07;5.87;;;2.93;;
10162;SDS011;5123;52.556;13.384;2022-11-02T04:56:40;4.97;;;2.93;;
10162;SDS011;5123;52.556;13.384;2022-11-02T04:59:14;9.83;;;3.50;;
10162;SDS011;5123;52.556;13.384;2022-11-02T05:01:46;5.83;;;2.93;;
10162;SDS011;5123;52.556;13.384;2022-11-02T05:04:19;7.23;;;2.87;;
10162;SDS011;5123;52.556;13.384;2022-11-02T05:06:53;4.33;;;2.67;;
10162;SDS011;5123;52.556;13.384;2022-11-02T05:09:31;6.27;;;3.37;;
10162;SDS011;5123;52.556;13.384;2022-11-02T05:12:04;6.40;;;3.00;;
10162;SDS011;5123;52.556;13.384;2022-11-02T05:14:37;7.00;;;3.07;;
10162;SDS011;5123;52.556;13.384;2022-11-02T05:17:09;7.13;;;3.10;;
10162;SDS011;5123;52.556;13.384;2022-11-02T05:19:43;6.37;;;3.10;;
10162;SDS011;5123;52.556;13.384;2022-11-02T05:22:17;7.17;;;3.27;;
10162;SDS011;5123;52.556;13.384;2022-11-02T05:24:53;6.13;;;2.70;;
10162;SDS011;5123;52.556;13.384;2022-11-02T05:27:26;6.53;;;3.10;;
10162;SDS011;5123;52.556;13.384;2022-11-02T05:29:58;5.37;;;2.70;;
10162;SDS011;5123;52.556;13.384;2022-11-02T05:32:31;7.73;;;3.33;;
10162;SDS011;5123;52.556;13.384;2022-11-02T05:35:04;4.73;;;2.90;;
10162;SDS011;5123;52.556;13.384;2022-11-02T05:37:38;4.37;;;2.77;;
10162;SDS011;5123;52.556;13.384;2022-11-02T05:40:11;6.27;;;2.80;;
10162;SDS011;5123;52.556;13.384;2022-11-02T05:42:44;6.93;;;3.00;;
10162;SDS011;5123;52.556;13.384;2022-11-02T05:45:17;8.23;;;3.47;;
10162;SDS011;5123;52.556;13.384;2022-11-02T05:47:55;5.43;;;2.97;;
10162;SDS011;5123;52.556;13.384;2022-11-02T05:50:31;6.13;;;3.13;;
10162;SDS011;5123;52.556;13.384;2022-11-02T05:53:05;6.93;;;3.23;;
10162;SDS011;5123;52.556;13.384;2022-11-02T05:55:38;7.70;;;3.17;;
10162;SDS011;5123;52.556;13.384;2022-11-02T05:58:11;10.23;;;3.33;;
10162;SDS011;5123;52.556;13.384;2022-11-02T06:00:43;7.57;;;2.83;;
10162;SDS011;5123;52.556;13.384;2022-11-02T06:03:18;8.10;;;2.93;;
10162;SDS011;5123;52.556;13.384;2022-11-02T06:05:54;7.53;;;3.17;;
10162;SDS011;5123;52.556;13.384;2022-11-02T06:08:31;5.43;;;2.37;;
10162;SDS011;5123;52.556;13.384;2022-11-02T06:11:07;8.07;;;2.67;;
10162;SDS011;5123;52.556;13.384;2022-11-02T06:13:39;10.80;;;2.70;;
10162;SDS011;5123;52.556;13.384;2022-11-02T06:16:12;11.43;;;3.33;;
10162;SDS011;5123;52.556;13.384;2022-11-02T06:18:53;5.83;;;2.73;;
10162;SDS011;5123;52.556;13.384;2022-11-02T06:21:26;7.60;;;3.43;;
10162;SDS011;5123;52.556;13.384;2022-11-02T06:24:00;5.43;;;3.07;;
10162;SDS011;5123;52.556;13.384;2022-11-02T06:26:34;5.87;;;3.07;;
10162;SDS011;5123;52.556;13.384;2022-11-02T06:29:07;7.80;;;2.90;;
10162;SDS011;5123;52.556;13.384;2022-11-02T06:31:40;8.53;;;3.43;;
10162;SDS011;5123;52.556;13.384;2022-11-02T06:34:12;5.70;;;3.10;;
10162;SDS011;5123;52.556;13.384;2022-11-02T06:36:45;6.50;;;2.70;;
10162;SDS011;5123;52.556;13.384;2022-11-02T06:39:19;5.30;;;2.80;;
10162;SDS011;5123;52.556;13.384;2022-11-02T06:41:52;9.80;;;2.90;;
10162;SDS011;5123;52.556;13.384;2022-11-02T06:44:24;6.07;;;3.03;;
10162;SDS011;5123;52.556;13.384;2022-11-02T06:46:57;7.87;;;3.30;;
10162;SDS011;5123;52.556;13.384;2022-11-02T06:49:29;7.37;;;3.03;;
10162;SDS011;5123;52.556;13.384;2022-11-02T06:52:02;8.37;;;3.53;;
10162;SDS011;5123;52.556;13.384;2022-11-02T06:54:39;5.77;;;3.13;;
10162;SDS011;5123;52.556;13.384;2022-11-02T06:57:12;10.37;;;3.60;;
10162;SDS011;5123;52.556;13.384;2022-11-02T06:59:44;6.33;;;3.20;;
10162;SDS011;5123;52.556;13.384;2022-11-02T07:02:26;9.50;;;3.37;;
10162;SDS011;5123;52.556;13.384;2022-11-02T07:04:59;6.40;;;3.20;;
10162;SDS011;5123;52.556;13.384;2022-11-02T07:07:32;6.13;;;2.83;;
10162;SDS011;5123;52.556;13.384;2022-11-02T07:10:07;9.47;;;2.83;;
10162;SDS011;5123;52.556;13.384;2022-11-02T07:12:41;7.63;;;3.07;;
10162;SDS011;5123;52.556;13.384;2022-11-02T07:15:13;13.63;;;3.10;;
10162;SDS011;5123;52.556;13.384;2022-11-02T07:17:46;6.73;;;2.77;;
10162;SDS011;5123;52.556;13.384;2022-11-02T07:20:19;8.20;;;2.87;;
10162;SDS011;5123;52.556;13.384;2022-11-02T07:22:51;8.23;;;3.00;;
10162;SDS011;5123;52.556;13.384;2022-11-02T07:25:26;7.87;;;3.27;;
10162;SDS011;5123;52.556;13.384;2022-11-02T07:28:01;7.07;;;3.23;;
10162;SDS011;5123;52.556;13.384;2022-11-02T07:30:34;7.27;;;2.90;;
10162;SDS011;5123;52.556;13.384;2022-11-02T07:33:07;6.90;;;2.73;;
10162;SDS011;5123;52.556;13.384;2022-11-02T07:35:39;10.57;;;3.00;;
10162;SDS011;5123;52.556;13.384;2022-11-02T07:38:12;9.90;;;2.93;;
10162;SDS011;5123;52.556;13.384;2022-11-02T07:40:53;8.83;;;3.03;;
10162;SDS011;5123;52.556;13.384;2022-11-02T07:43:26;7.27;;;2.43;;
10162;SDS011;5123;52.556;13.384;2022-11-02T07:46:00;8.87;;;2.73;;
10162;SDS011;5123;52.556;13.384;2022-11-02T07:48:33;7.70;;;3.17;;
10162;SDS011;5123;52.556;13.384;2022-11-02T07:51:06;8.03;;;2.60;;
10162;SDS011;5123;52.556;13.384;2022-11-02T07:53:42;6.97;;;2.90;;
10162;SDS011;5123;52.556;13.384;2022-11-02T07:56:16;7.50;;;2.90;;
10162;SDS011;5123;52.556;13.384;2022-11-02T07:58:48;10.17;;;2.73;;
10162;SDS011;5123;52.556;13.384;2022-11-02T08:01:21;5.00;;;2.73;;
10162;SDS011;5123;52.556;13.384;2022-11-02T08:03:54;6.80;;;3.30;;
10162;SDS011;5123;52.556;13.384;2022-11-02T08:06:27;7.30;;;2.83;;
10162;SDS011;5123;52.556;13.384;2022-11-02T08:09:01;3.93;;;2.50;;
10162;SDS011;5123;52.556;13.384;2022-11-02T08:11:35;6.10;;;3.03;;
10162;SDS011;5123;52.556;13.384;2022-11-02T08:14:09;11.63;;;2.93;;
10162;SDS011;5123;52.556;13.384;2022-11-02T08:16:42;8.67;;;3.10;;
10162;SDS011;5123;52.556;13.384;2022-11-02T08:19:15;8.80;;;2.80;;
10162;SDS011;5123;52.556;13.384;2022-11-02T08:21:48;5.57;;;2.83;;
10162;SDS011;5123;52.556;13.384;2022-11-02T08:24:20;7.07;;;3.30;;
10162;SDS011;5123;52.556;13.384;2022-11-02T08:26:54;9.63;;;2.93;;
10162;SDS011;5123;52.556;13.384;2022-11-02T08:29:27;6.67;;;2.60;;
10162;SDS011;5123;52.556;13.384;2022-11-02T08:32:00;7.73;;;3.13;;
10162;SDS011;5123;52.556;13.384;2022-11-02T08:34:33;7.83;;;2.80;;
10162;SDS011;5123;52.556;13.384;2022-11-02T08:37:06;7.97;;;3.13;;
10162;SDS011;5123;52.556;13.384;2022-11-02T08:39:38;7.43;;;2.43;;
10162;SDS011;5123;52.556;13.384;2022-11-02T08:42:21;6.63;;;3.20;;
10162;SDS011;5123;52.556;13.384;2022-11-02T08:44:54;11.20;;;2.90;;
10162;SDS011;5123;52.556;13.384;2022-11-02T08:47:26;8.00;;;3.07;;
10162;SDS011;5123;52.556;13.384;2022-11-02T08:49:59;7.50;;;3.10;;
10162;SDS011;5123;52.556;13.384;2022-11-02T08:52:33;6.57;;;3.03;;
10162;SDS011;5123;52.556;13.384;2022-11-02T08:55:11;8.57;;;2.90;;
10162;SDS011;5123;52.556;13.384;2022-11-02T08:57:45;6.67;;;2.50;;
10162;SDS011;5123;52.556;13.384;2022-11-02T09:00:21;9.23;;;4.17;;
10162;SDS011;5123;52.556;13.384;2022-11-02T09:02:59;15.43;;;4.90;;
10162;SDS011;5123;52.556;13.384;2022-11-02T09:05:35;25.83;;;17.73;;
10162;SDS011;5123;52.556;13.384;2022-11-02T09:08:09;7.07;;;3.23;;
10162;SDS011;5123;52.556;13.384;2022-11-02T09:10:43;6.57;;;3.40;;
10162;SDS011;5123;52.556;13.384;2022-11-02T09:13:17;4.50;;;2.70;;
10162;SDS011;5123;52.556;13.384;2022-11-02T09:15:58;5.13;;;2.67;;
10162;SDS011;5123;52.556;13.384;2022-11-02T09:18:33;7.30;;;3.10;;
10162;SDS011;5123;52.556;13.384;2022-11-02T09:21:07;6.83;;;3.13;;
10162;SDS011;5123;52.556;13.384;2022-11-02T09:23:42;8.77;;;3.00;;
10162;SDS011;5123;52.556;13.384;2022-11-02T09:26:18;12.50;;;3.40;;
10162;SDS011;5123;52.556;13.384;2022-11-02T09:28:52;10.07;;;4.37;;
10162;SDS011;5123;52.556;13.384;2022-11-02T09:31:25;9.77;;;5.60;;
10162;SDS011;5123;52.556;13.384;2022-11-02T09:33:59;7.23;;;3.83;;
10162;SDS011;5123;52.556;13.384;2022-11-02T09:36:32;6.80;;;3.10;;
10162;SDS011;5123;52.556;13.384;2022-11-02T09:39:05;9.13;;;2.90;;
10162;SDS011;5123;52.556;13.384;2022-11-02T09:41:40;12.07;;;3.33;;
10162;SDS011;5123;52.556;13.384;2022-11-02T09:44:17;8.97;;;3.37;;
10162;SDS011;5123;52.556;13.384;2022-11-02T09:46:53;7.73;;;2.90;;
10162;SDS011;5123;52.556;13.384;2022-11-02T09:49:47;6.97;;;3.17;;
10162;SDS011;5123;52.556;13.384;2022-11-02T09:52:21;13.93;;;4.40;;
10162;SDS011;5123;52.556;13.384;2022-11-02T09:54:55;9.77;;;3.90;;
10162;SDS011;5123;52.556;13.384;2022-11-02T09:57:31;4.83;;;2.40;;
10162;SDS011;5123;52.556;13.384;2022-11-02T10:00:07;7.80;;;2.70;;
10162;SDS011;5123;52.556;13.384;2022-11-02T10:02:44;9.30;;;2.50;;
10162;SDS011;5123;52.556;13.384;2022-11-02T10:05:26;9.07;;;2.83;;
10162;SDS011;5123;52.556;13.384;2022-11-02T10:08:05;9.47;;;2.80;;
10162;SDS011;5123;52.556;13.384;2022-11-02T10:10:40;8.37;;;3.10;;
10162;SDS011;5123;52.556;13.384;2022-11-02T10:13:23;8.37;;;2.73;;
10162;SDS011;5123;52.556;13.384;2022-11-02T10:15:59;4.10;;;1.80;;
10162;SDS011;5123;52.556;13.384;2022-11-02T10:18:34;8.17;;;2.27;;
10162;SDS011;5123;52.556;13.384;2022-11-02T10:21:11;9.70;;;2.37;;
10162;SDS011;5123;52.556;13.384;2022-11-02T10:23:48;5.30;;;2.33;;
10162;SDS011;5123;52.556;13.384;2022-11-02T10:26:23;8.43;;;2.57;;
10162;SDS011;5123;52.556;13.384;2022-11-02T10:28:57;7.27;;;2.70;;
10162;SDS011;5123;52.556;13.384;2022-11-02T10:31:31;8.83;;;2.57;;
10162;SDS011;5123;52.556;13.384;2022-11-02T10:34:09;7.33;;;2.43;;
10162;SDS011;5123;52.556;13.384;2022-11-02T10:36:45;6.80;;;2.27;;
10162;SDS011;5123;52.556;13.384;2022-11-02T10:39:23;5.53;;;2.33;;
10162;SDS011;5123;52.556;13.384;2022-11-02T10:42:04;7.43;;;2.63;;
10162;SDS011;5123;52.556;13.384;2022-11-02T10:44:46;5.50;;;2.33;;
10162;SDS011;5123;52.556;13.384;2022-11-02T10:47:26;6.23;;;2.30;;
10162;SDS011;5123;52.556;13.384;2022-11-02T10:50:04;6.67;;;2.30;;
10162;SDS011;5123;52.556;13.384;2022-11-02T10:52:43;5.97;;;2.20;;
10162;SDS011;5123;52.556;13.384;2022-11-02T10:55:20;7.83;;;2.40;;
10162;SDS011;5123;52.556;13.384;2022-11-02T10:57:55;3.53;;;2.10;;
10162;SDS011;5123;52.556;13.384;2022-11-02T11:00:30;6.90;;;2.60;;
10162;SDS011;5123;52.556;13.384;2022-11-02T11:03:05;6.07;;;2.20;;
10162;SDS011;5123;52.556;13.384;2022-11-02T11:05:49;4.17;;;1.93;;
10162;SDS011;5123;52.556;13.384;2022-11-02T11:08:35;5.63;;;2.20;;
10162;SDS011;5123;52.556;13.384;2022-11-02T11:11:09;7.70;;;1.80;;
10162;SDS011;5123;52.556;13.384;2022-11-02T11:13:42;8.77;;;2.33;;
10162;SDS011;5123;52.556;13.384;2022-11-02T11:16:36;6.77;;;2.27;;
10162;SDS011;5123;52.556;13.384;2022-11-02T11:19:26;6.33;;;2.47;;
10162;SDS011;5123;52.556;13.384;2022-11-02T11:25:19;6.47;;;2.17;;
10162;SDS011;5123;52.556;13.384;2022-11-02T11:28:00;7.00;;;2.63;;
10162;SDS011;5123;52.556;13.384;2022-11-02T11:30:34;3.30;;;2.33;;
10162;SDS011;5123;52.556;13.384;2022-11-02T11:33:27;5.30;;;2.17;;
10162;SDS011;5123;52.556;13.384;2022-11-02T11:36:03;8.10;;;2.27;;
10162;SDS011;5123;52.556;13.384;2022-11-02T11:38:36;7.47;;;2.30;;
10162;SDS011;5123;52.556;13.384;2022-11-02T11:41:17;4.87;;;2.10;;
10162;SDS011;5123;52.556;13.384;2022-11-02T11:43:50;7.00;;;2.47;;
10162;SDS011;5123;52.556;13.384;2022-11-02T11:46:23;7.20;;;2.40;;
10162;SDS011;5123;52.556;13.384;2022-11-02T11:49:16;9.77;;;2.10;;
10162;SDS011;5123;52.556;13.384;2022-11-02T11:51:52;5.70;;;2.30;;
10162;SDS011;5123;52.556;13.384;2022-11-02T11:54:26;4.90;;;2.10;;
10162;SDS011;5123;52.556;13.384;2022-11-02T11:56:59;6.07;;;2.57;;
10162;SDS011;5123;52.556;13.384;2022-11-02T11:59:49;7.07;;;2.83;;
10162;SDS011;5123;52.556;13.384;2022-11-02T12:02:23;6.30;;;3.00;;
10162;SDS011;5123;52.556;13.384;2022-11-02T12:04:59;5.83;;;2.40;;
10162;SDS011;5123;52.556;13.384;2022-11-02T12:07:40;6.53;;;2.10;;
10162;SDS011;5123;52.556;13.384;2022-11-02T12:10:14;8.70;;;2.53;;
10162;SDS011;5123;52.556;13.384;2022-11-02T12:12:54;5.70;;;2.37;;
10162;SDS011;5123;52.556;13.384;2022-11-02T12:18:27;5.17;;;2.30;;
10162;SDS011;5123;52.556;13.384;2022-11-02T12:21:08;3.60;;;2.40;;
10162;SDS011;5123;52.556;13.384;2022-11-02T12:23:50;4.80;;;2.30;;
10162;SDS011;5123;52.556;13.384;2022-11-02T12:26:28;6.47;;;2.97;;
10162;SDS011;5123;52.556;13.384;2022-11-02T12:29:06;5.97;;;2.70;;
10162;SDS011;5123;52.556;13.384;2022-11-02T12:31:42;8.00;;;2.57;;
10162;SDS011;5123;52.556;13.384;2022-11-02T12:34:21;7.47;;;2.87;;
10162;SDS011;5123;52.556;13.384;2022-11-02T12:37:04;7.83;;;2.63;;
10162;SDS011;5123;52.556;13.384;2022-11-02T12:40:05;7.73;;;2.70;;
10162;SDS011;5123;52.556;13.384;2022-11-02T12:42:45;5.57;;;2.00;;
10162;SDS011;5123;52.556;13.384;2022-11-02T12:45:23;8.17;;;2.43;;
10162;SDS011;5123;52.556;13.384;2022-11-02T12:48:05;2.90;;;1.90;;
10162;SDS011;5123;52.556;13.384;2022-11-02T12:50:47;3.70;;;2.13;;
10162;SDS011;5123;52.556;13.384;2022-11-02T12:53:34;5.30;;;2.30;;
10162;SDS011;5123;52.556;13.384;2022-11-02T12:56:12;5.40;;;1.90;;
10162;SDS011;5123;52.556;13.384;2022-11-02T12:58:47;5.47;;;2.27;;
10162;SDS011;5123;52.556;13.384;2022-11-02T13:01:23;5.37;;;2.07;;
10162;SDS011;5123;52.556;13.384;2022-11-02T13:03:59;2.43;;;1.70;;
10162;SDS011;5123;52.556;13.384;2022-11-02T13:06:35;4.07;;;2.30;;
10162;SDS011;5123;52.556;13.384;2022-11-02T13:09:10;7.10;;;2.27;;
10162;SDS011;5123;52.556;13.384;2022-11-02T13:11:46;5.77;;;2.03;;
10162;SDS011;5123;52.556;13.384;2022-11-02T13:14:22;5.73;;;2.17;;
10162;SDS011;5123;52.556;13.384;2022-11-02T13:16:58;7.90;;;2.20;;
10162;SDS011;5123;52.556;13.384;2022-11-02T13:19:33;5.47;;;2.40;;
10162;SDS011;5123;52.556;13.384;2022-11-02T13:22:07;5.73;;;1.77;;
10162;SDS011;5123;52.556;13.384;2022-11-02T13:24:44;2.90;;;1.80;;
10162;SDS011;5123;52.556;13.384;2022-11-02T13:27:24;4.20;;;2.20;;
10162;SDS011;5123;52.556;13.384;2022-11-02T13:30:12;2.50;;;1.50;;
10162;SDS011;5123;52.556;13.384;2022-11-02T13:32:45;4.60;;;1.60;;
10162;SDS011;5123;52.556;13.384;2022-11-02T13:35:22;6.00;;;1.93;;
10162;SDS011;5123;52.556;13.384;2022-11-02T13:37:56;3.63;;;1.60;;
10162;SDS011;5123;52.556;13.384;2022-11-02T13:40:36;4.70;;;1.87;;
10162;SDS011;5123;52.556;13.384;2022-11-02T13:43:22;4.50;;;1.80;;
10162;SDS011;5123;52.556;13.384;2022-11-02T13:46:05;7.50;;;2.00;;
10162;SDS011;5123;52.556;13.384;2022-11-02T13:48:49;5.40;;;2.50;;
10162;SDS011;5123;52.556;13.384;2022-11-02T13:51:25;5.17;;;2.33;;
10162;SDS011;5123;52.556;13.384;2022-11-02T13:53:59;3.60;;;1.87;;
10162;SDS011;5123;52.556;13.384;2022-11-02T13:56:34;2.80;;;1.83;;
10162;SDS011;5123;52.556;13.384;2022-11-02T13:59:09;6.20;;;2.20;;
10162;SDS011;5123;52.556;13.384;2022-11-02T14:01:49;4.13;;;2.07;;
10162;SDS011;5123;52.556;13.384;2022-11-02T14:04:23;3.07;;;1.97;;
10162;SDS011;5123;52.556;13.384;2022-11-02T14:07:00;3.23;;;1.80;;
10162;SDS011;5123;52.556;13.384;2022-11-02T14:09:36;3.70;;;2.03;;
10162;SDS011;5123;52.556;13.384;2022-11-02T14:12:32;5.33;;;2.23;;
10162;SDS011;5123;52.556;13.384;2022-11-02T14:18:09;3.13;;;2.27;;
10162;SDS011;5123;52.556;13.384;2022-11-02T14:20:43;5.30;;;2.27;;
10162;SDS011;5123;52.556;13.384;2022-11-02T14:23:36;4.77;;;2.07;;
10162;SDS011;5123;52.556;13.384;2022-11-02T14:32:07;6.97;;;2.60;;
10162;SDS011;5123;52.556;13.384;2022-11-02T14:34:57;8.67;;;2.27;;
10162;SDS011;5123;52.556;13.384;2022-11-02T14:37:44;6.33;;;2.40;;
10162;SDS011;5123;52.556;13.384;2022-11-02T14:40:26;3.13;;;1.70;;
10162;SDS011;5123;52.556;13.384;2022-11-02T14:46:00;7.60;;;2.47;;
10162;SDS011;5123;52.556;13.384;2022-11-02T14:48:43;5.93;;;2.23;;
10162;SDS011;5123;52.556;13.384;2022-11-02T14:51:23;4.33;;;2.30;;
10162;SDS011;5123;52.556;13.384;2022-11-02T14:53:59;5.17;;;1.90;;
10162;SDS011;5123;52.556;13.384;2022-11-02T14:56:48;3.13;;;1.70;;
10162;SDS011;5123;52.556;13.384;2022-11-02T14:59:24;5.83;;;2.30;;
10162;SDS011;5123;52.556;13.384;2022-11-02T15:01:58;5.00;;;2.10;;
10162;SDS011;5123;52.556;13.384;2022-11-02T15:04:32;5.87;;;2.17;;
10162;SDS011;5123;52.556;13.384;2022-11-02T15:07:07;5.50;;;2.33;;
10162;SDS011;5123;52.556;13.384;2022-11-02T15:09:49;4.87;;;2.00;;
10162;SDS011;5123;52.556;13.384;2022-11-02T15:12:30;5.67;;;2.40;;
10162;SDS011;5123;52.556;13.384;2022-11-02T15:23:42;4.93;;;1.83;;
10162;SDS011;5123;52.556;13.384;2022-11-02T15:26:25;8.60;;;2.10;;
10162;SDS011;5123;52.556;13.384;2022-11-02T15:29:02;4.83;;;2.17;;
10162;SDS011;5123;52.556;13.384;2022-11-02T15:31:39;5.40;;;2.13;;
10162;SDS011;5123;52.556;13.384;2022-11-02T15:34:13;5.03;;;2.40;;
10162;SDS011;5123;52.556;13.384;2022-11-02T15:36:47;7.27;;;2.47;;
10162;SDS011;5123;52.556;13.384;2022-11-02T15:39:21;3.70;;;1.93;;
10162;SDS011;5123;52.556;13.384;2022-11-02T15:42:00;3.27;;;1.67;;
10162;SDS011;5123;52.556;13.384;2022-11-02T15:44:49;5.37;;;1.70;;
10162;SDS011;5123;52.556;13.384;2022-11-02T15:47:28;3.80;;;2.10;;
10162;SDS011;5123;52.556;13.384;2022-11-02T15:50:16;7.63;;;2.40;;
10162;SDS011;5123;52.556;13.384;2022-11-02T15:52:54;5.40;;;1.93;;
10162;SDS011;5123;52.556;13.384;2022-11-02T15:55:52;3.73;;;2.17;;
10162;SDS011;5123;52.556;13.384;2022-11-02T15:58:32;3.90;;;2.00;;
10162;SDS011;5123;52.556;13.384;2022-11-02T16:01:14;3.27;;;1.67;;
10162;SDS011;5123;52.556;13.384;2022-11-02T16:03:48;4.77;;;2.63;;
10162;SDS011;5123;52.556;13.384;2022-11-02T16:06:29;5.97;;;3.10;;